createdAt,value
2023-02-19T00:01:49.045Z,15.63
2023-02-19T00:04:19.523Z,13.20
2023-02-19T00:06:47.936Z,17.57
2023-02-19T00:09:17.636Z,13.60
2023-02-19T00:11:46.526Z,14.27
2023-02-19T00:14:19.700Z,15.07
2023-02-19T00:16:47.544Z,18.50
2023-02-19T00:19:17.868Z,16.80
2023-02-19T00:21:45.351Z,15.03
2023-02-19T00:24:14.256Z,15.23
2023-02-19T00:26:43.807Z,14.77
2023-02-19T00:29:16.658Z,15.40
2023-02-19T00:31:44.919Z,16.67
2023-02-19T00:34:13.304Z,12.43
2023-02-19T00:36:42.325Z,17.93
2023-02-19T00:39:16.346Z,15.73
2023-02-19T00:41:44.608Z,16.70
2023-02-19T00:44:13.581Z,15.37
2023-02-19T00:46:44.706Z,17.83
2023-02-19T00:49:21.424Z,16.90
2023-02-19T00:51:49.847Z,17.17
2023-02-19T00:54:17.675Z,17.97
2023-02-19T00:56:45.473Z,17.83
2023-02-19T00:59:13.270Z,14.27
2023-02-19T01:01:46.464Z,15.80
2023-02-19T01:04:14.424Z,20.37
2023-02-19T01:06:44.906Z,19.63
2023-02-19T01:09:12.536Z,15.30
2023-02-19T01:11:40.105Z,16.80
2023-02-19T01:14:08.077Z,19.93
2023-02-19T01:16:35.834Z,18.83
2023-02-19T01:19:03.857Z,16.70
2023-02-19T01:21:32.116Z,19.23
2023-02-19T01:24:00.089Z,17.60
2023-02-19T01:26:31.141Z,16.10
2023-02-19T01:29:00.458Z,16.57
2023-02-19T01:31:28.573Z,16.43
2023-02-19T01:34:00.195Z,23.03
2023-02-19T01:36:28.172Z,15.80
2023-02-19T01:38:56.264Z,17.27
2023-02-19T01:41:26.179Z,18.60
2023-02-19T01:44:08.207Z,15.97
2023-02-19T01:46:37.729Z,15.18
2023-02-19T01:49:15.036Z,12.00
2023-02-19T01:51:47.752Z,17.63
2023-02-19T01:54:20.435Z,13.13
2023-02-19T01:56:49.367Z,17.43
2023-02-19T01:59:18.901Z,16.53
2023-02-19T02:01:46.705Z,15.87
2023-02-19T02:04:15.903Z,16.07
2023-02-19T02:06:47.735Z,12.93
2023-02-19T02:09:35.383Z,15.88
2023-02-19T02:12:02.886Z,14.63
2023-02-19T02:14:34.546Z,17.67
2023-02-19T02:17:26.211Z,13.60
2023-02-19T02:20:23.451Z,15.07
2023-02-19T02:23:15.155Z,17.73
2023-02-19T02:26:22.703Z,13.43
2023-02-19T02:29:24.858Z,15.20
2023-02-19T02:32:02.026Z,16.07
2023-02-19T02:34:48.806Z,16.33
2023-02-19T02:37:17.466Z,15.90
2023-02-19T02:39:47.229Z,16.73
2023-02-19T02:42:30.110Z,13.43
2023-02-19T02:45:17.664Z,13.87
2023-02-19T02:47:53.086Z,14.17
2023-02-19T02:50:29.735Z,14.40
2023-02-19T02:53:20.307Z,13.73
2023-02-19T02:55:52.344Z,13.20
2023-02-19T02:58:23.160Z,16.88
2023-02-19T03:01:15.310Z,15.90
2023-02-19T03:03:47.403Z,12.93
2023-02-19T03:06:17.544Z,16.42
2023-02-19T03:09:10.802Z,9.63
2023-02-19T03:12:00.251Z,15.27
2023-02-19T03:15:10.456Z,15.50
2023-02-19T03:18:06.061Z,15.23
2023-02-19T03:20:37.014Z,12.97
2023-02-19T03:23:07.586Z,15.23
2023-02-19T03:25:58.710Z,14.93
2023-02-19T03:28:48.090Z,11.73
2023-02-19T03:31:20.430Z,14.93
2023-02-19T03:33:54.790Z,12.45
2023-02-19T03:36:26.560Z,14.97
2023-02-19T03:38:59.530Z,17.95
2023-02-19T03:41:32.480Z,14.13
2023-02-19T03:44:20.393Z,15.67
2023-02-19T03:46:52.906Z,14.27
2023-02-19T03:49:37.268Z,14.90
2023-02-19T03:52:16.888Z,13.47
2023-02-19T03:54:46.989Z,13.53
2023-02-19T03:57:26.151Z,14.30
2023-02-19T03:59:59.388Z,13.07
2023-02-19T04:02:50.067Z,16.53
2023-02-19T04:05:22.088Z,14.57
2023-02-19T04:07:58.380Z,14.63
2023-02-19T04:10:26.862Z,14.33
2023-02-19T04:13:01.219Z,13.83
2023-02-19T04:15:32.506Z,16.53
2023-02-19T04:18:26.343Z,14.80
2023-02-19T04:20:54.379Z,13.00
2023-02-19T04:23:25.890Z,14.50
2023-02-19T04:25:59.416Z,12.83
2023-02-19T04:28:28.237Z,12.60
2023-02-19T04:30:55.839Z,11.83
2023-02-19T04:33:23.442Z,13.10
2023-02-19T04:35:51.294Z,11.43
2023-02-19T04:38:18.934Z,13.70
2023-02-19T04:40:47.105Z,12.77
2023-02-19T04:43:15.087Z,13.43
2023-02-19T04:45:42.661Z,17.70
2023-02-19T04:48:10.370Z,12.87
2023-02-19T04:50:41.111Z,14.33
2023-02-19T04:53:08.897Z,13.07
2023-02-19T04:55:40.118Z,15.10
2023-02-19T04:58:07.784Z,12.27
2023-02-19T05:00:35.364Z,13.70
2023-02-19T05:03:02.887Z,14.13
2023-02-19T05:05:30.548Z,14.20
2023-02-19T05:07:58.087Z,12.70
2023-02-19T05:10:25.610Z,12.97
2023-02-19T05:12:57.551Z,14.33
2023-02-19T05:15:25.476Z,15.88
2023-02-19T05:17:53.060Z,8.93
2023-02-19T05:20:22.598Z,14.30
2023-02-19T05:22:52.678Z,12.17
2023-02-19T05:25:20.242Z,12.13
2023-02-19T05:27:47.864Z,11.83
2023-02-19T05:30:15.410Z,11.80
2023-02-19T05:32:42.883Z,12.37
2023-02-19T05:35:10.517Z,12.13
2023-02-19T05:37:38.113Z,12.63
2023-02-19T05:40:06.075Z,10.47
2023-02-19T05:42:33.575Z,13.00
2023-02-19T05:45:01.113Z,14.50
2023-02-19T05:47:28.830Z,11.17
2023-02-19T05:49:56.541Z,9.90
2023-02-19T05:52:24.074Z,11.93
2023-02-19T05:54:51.624Z,10.57
2023-02-19T05:57:20.652Z,11.03
2023-02-19T05:59:48.117Z,11.33
2023-02-19T06:02:15.674Z,7.17
2023-02-19T06:04:43.183Z,11.50
2023-02-19T06:07:10.684Z,12.07
2023-02-19T06:09:38.368Z,10.77
2023-02-19T06:12:06.162Z,10.87
2023-02-19T06:14:33.771Z,11.80
2023-02-19T06:17:01.314Z,9.33
2023-02-19T06:19:28.811Z,8.97
2023-02-19T06:21:56.399Z,11.57
2023-02-19T06:24:23.970Z,10.03
2023-02-19T06:26:51.475Z,9.67
2023-02-19T06:29:18.971Z,10.53
2023-02-19T06:31:46.717Z,11.83
2023-02-19T06:34:14.446Z,11.83
2023-02-19T06:36:42.251Z,9.47
2023-02-19T06:39:10.853Z,9.87
2023-02-19T06:41:38.421Z,13.07
2023-02-19T06:44:06.095Z,11.23
2023-02-19T06:46:34.613Z,10.13
2023-02-19T06:49:07.385Z,10.10
2023-02-19T06:54:05.305Z,11.43
2023-02-19T06:56:35.688Z,10.73
2023-02-19T06:59:05.017Z,11.07
2023-02-19T07:01:34.287Z,11.37
2023-02-19T07:04:02.595Z,12.10
2023-02-19T07:06:31.223Z,11.00
2023-02-19T07:08:59.785Z,12.37
2023-02-19T07:11:30.759Z,10.80
2023-02-19T07:14:03.782Z,11.37
2023-02-19T07:16:31.967Z,9.33
2023-02-19T07:19:00.957Z,11.13
2023-02-19T07:21:29.665Z,10.47
2023-02-19T07:23:58.389Z,11.87
2023-02-19T07:26:26.158Z,9.13
2023-02-19T07:28:53.715Z,10.33
2023-02-19T07:31:23.034Z,10.47
2023-02-19T07:33:50.948Z,10.40
2023-02-19T07:36:19.561Z,8.67
2023-02-19T07:38:47.402Z,10.17
2023-02-19T07:41:14.969Z,8.27
2023-02-19T07:43:42.634Z,9.87
2023-02-19T07:46:14.513Z,10.57
2023-02-19T07:48:43.711Z,10.35
2023-02-19T07:51:19.152Z,12.23
2023-02-19T07:53:47.801Z,10.30
2023-02-19T07:56:15.661Z,12.70
2023-02-19T07:58:43.309Z,9.17
2023-02-19T08:01:14.062Z,10.37
2023-02-19T08:03:42.713Z,12.40
2023-02-19T08:06:11.440Z,11.93
2023-02-19T08:08:40.260Z,10.30
2023-02-19T08:11:26.917Z,12.30
2023-02-19T08:13:54.551Z,12.23
2023-02-19T08:16:36.900Z,12.50
2023-02-19T08:19:09.955Z,10.27
2023-02-19T08:21:37.480Z,10.30
2023-02-19T08:24:05.409Z,11.17
2023-02-19T08:26:33.870Z,12.03
2023-02-19T08:29:01.392Z,13.13
2023-02-19T08:31:29.170Z,10.67
2023-02-19T08:33:56.815Z,10.30
2023-02-19T08:36:24.480Z,10.97
2023-02-19T08:38:51.999Z,13.57
2023-02-19T08:41:19.558Z,11.60
2023-02-19T08:43:49.876Z,12.47
2023-02-19T08:46:17.406Z,9.63
2023-02-19T08:48:45.065Z,12.23
2023-02-19T08:51:13.321Z,11.63
2023-02-19T08:53:41.718Z,11.83
2023-02-19T08:56:14.653Z,9.30
2023-02-19T08:58:42.252Z,11.03
2023-02-19T09:01:16.542Z,9.60
2023-02-19T09:03:44.329Z,11.83
2023-02-19T09:06:17.875Z,16.10
2023-02-19T09:08:45.486Z,12.38
2023-02-19T09:11:13.654Z,11.10
2023-02-19T09:13:41.689Z,14.17
2023-02-19T09:16:12.736Z,11.13
2023-02-19T09:18:40.434Z,13.70
2023-02-19T09:21:08.057Z,13.43
2023-02-19T09:23:37.096Z,11.97
2023-02-19T09:26:08.788Z,11.80
2023-02-19T09:28:36.783Z,13.10
2023-02-19T09:31:09.391Z,10.63
2023-02-19T09:33:37.596Z,11.52
2023-02-19T09:36:07.756Z,13.43
2023-02-19T09:38:36.378Z,10.18
2023-02-19T09:41:10.600Z,13.18
2023-02-19T09:43:40.872Z,12.93
2023-02-19T09:46:31.672Z,14.20
2023-02-19T09:49:18.758Z,10.65
2023-02-19T09:51:55.597Z,13.32
2023-02-19T09:54:32.246Z,11.85
2023-02-19T09:57:02.595Z,10.73
2023-02-19T09:59:40.486Z,12.90
2023-02-19T10:02:16.416Z,12.88
2023-02-19T10:04:45.705Z,10.48
2023-02-19T10:07:17.059Z,10.93
2023-02-19T10:09:57.185Z,11.57
2023-02-19T10:12:30.627Z,9.80
2023-02-19T10:15:18.224Z,11.35
2023-02-19T10:17:46.458Z,12.63
2023-02-19T10:20:17.917Z,11.20
2023-02-19T10:22:45.950Z,14.40
2023-02-19T10:25:16.819Z,15.43
2023-02-19T10:27:45.817Z,11.88
2023-02-19T10:30:25.224Z,11.85
2023-02-19T10:33:05.331Z,13.27
2023-02-19T10:35:37.965Z,13.25
2023-02-19T10:38:08.513Z,13.73
2023-02-19T10:40:36.115Z,12.25
2023-02-19T10:43:05.105Z,13.20
2023-02-19T10:45:40.107Z,12.07
2023-02-19T10:48:21.466Z,12.15
2023-02-19T10:50:58.375Z,14.13
2023-02-19T10:53:39.704Z,11.43
2023-02-19T10:56:26.581Z,13.77
2023-02-19T10:58:54.161Z,12.75
2023-02-19T11:01:24.343Z,11.98
2023-02-19T11:03:53.910Z,12.40
2023-02-19T11:06:26.279Z,10.60
2023-02-19T11:08:59.802Z,13.43
2023-02-19T11:11:36.835Z,10.45
2023-02-19T11:14:14.815Z,10.80
2023-02-19T11:16:56.675Z,11.43
2023-02-19T11:19:41.346Z,10.45
2023-02-19T11:22:31.117Z,10.73
2023-02-19T11:25:06.728Z,12.25
2023-02-19T11:27:34.903Z,12.10
2023-02-19T11:30:34.461Z,11.70
2023-02-19T11:33:20.833Z,11.75
2023-02-19T11:35:50.113Z,11.77
2023-02-19T11:38:19.868Z,11.35
2023-02-19T11:41:11.602Z,12.32
2023-02-19T11:44:09.408Z,11.95
2023-02-19T11:46:55.692Z,13.80
2023-02-19T11:49:28.556Z,11.23
2023-02-19T11:52:41.130Z,12.27
2023-02-19T11:55:18.809Z,11.52
2023-02-19T11:58:10.779Z,12.70
2023-02-19T12:00:53.141Z,11.82
2023-02-19T12:03:51.494Z,11.32
2023-02-19T12:06:31.040Z,10.38
2023-02-19T12:08:58.545Z,11.05
2023-02-19T12:11:40.041Z,14.60
2023-02-19T12:14:23.650Z,11.52
2023-02-19T12:17:08.628Z,10.32
2023-02-19T12:20:13.420Z,12.57
2023-02-19T12:22:50.576Z,12.30
2023-02-19T12:25:34.883Z,13.57
2023-02-19T12:28:26.907Z,12.73
2023-02-19T12:31:03.853Z,13.65
2023-02-19T12:33:57.359Z,11.27
2023-02-19T12:36:53.247Z,11.60
2023-02-19T12:39:29.866Z,12.80
2023-02-19T12:42:09.538Z,11.25
2023-02-19T12:44:47.360Z,12.00
2023-02-19T12:47:23.384Z,13.98
2023-02-19T12:50:14.829Z,11.68
2023-02-19T12:52:46.603Z,14.27
2023-02-19T12:55:28.717Z,16.83
2023-02-19T12:57:58.854Z,13.50
2023-02-19T13:00:39.693Z,13.20
2023-02-19T13:03:24.059Z,13.50
2023-02-19T13:06:33.548Z,14.70
2023-02-19T13:09:29.528Z,12.77
2023-02-19T13:12:29.416Z,11.27
2023-02-19T13:15:21.780Z,12.93
2023-02-19T13:18:01.645Z,12.88
2023-02-19T13:20:38.053Z,14.27
2023-02-19T13:23:39.425Z,13.80
2023-02-19T13:26:44.487Z,13.60
2023-02-19T13:29:33.480Z,12.57
2023-02-19T13:32:42.674Z,14.07
2023-02-19T13:36:01.715Z,12.43
2023-02-19T13:38:29.858Z,15.37
2023-02-19T13:41:00.339Z,13.07
2023-02-19T13:43:35.545Z,13.77
2023-02-19T13:46:16.580Z,13.23
2023-02-19T13:48:44.789Z,12.67
2023-02-19T13:51:23.972Z,15.10
2023-02-19T13:53:59.851Z,15.63
2023-02-19T13:56:34.428Z,14.83
2023-02-19T13:59:38.280Z,12.67
2023-02-19T14:02:12.083Z,13.87
2023-02-19T14:05:02.689Z,13.93
2023-02-19T14:07:38.807Z,13.40
2023-02-19T14:10:12.415Z,14.33
2023-02-19T14:12:40.791Z,12.43
2023-02-19T14:15:44.430Z,13.93
2023-02-19T14:18:47.238Z,14.17
2023-02-19T14:21:26.574Z,13.85
2023-02-19T14:23:59.040Z,15.03
2023-02-19T14:26:28.118Z,14.77
2023-02-19T14:28:55.822Z,14.43
2023-02-19T14:31:37.959Z,15.27
2023-02-19T14:34:15.392Z,12.98
2023-02-19T14:36:50.525Z,12.70
2023-02-19T14:39:20.254Z,15.10
2023-02-19T14:41:51.925Z,14.77
2023-02-19T14:44:31.241Z,15.00
2023-02-19T14:47:20.956Z,15.87
2023-02-19T14:50:12.835Z,14.97
2023-02-19T14:52:46.821Z,13.53
2023-02-19T14:55:25.323Z,17.33
2023-02-19T14:57:54.805Z,16.37
2023-02-19T15:00:22.453Z,16.57
2023-02-19T15:02:55.939Z,16.30
2023-02-19T15:05:32.303Z,14.87
2023-02-19T15:08:03.565Z,17.03
2023-02-19T15:10:33.682Z,16.87
2023-02-19T15:13:17.603Z,14.03
2023-02-19T15:15:46.660Z,15.27
2023-02-19T15:18:24.376Z,14.53
2023-02-19T15:20:58.544Z,14.00
2023-02-19T15:23:30.668Z,15.90
2023-02-19T15:25:59.303Z,15.23
2023-02-19T15:28:26.733Z,14.07
2023-02-19T15:31:00.078Z,13.63
2023-02-19T15:33:28.503Z,16.13
2023-02-19T15:36:01.808Z,14.57
2023-02-19T15:38:30.126Z,16.57
2023-02-19T15:40:58.828Z,13.53
2023-02-19T15:43:46.361Z,16.20
2023-02-19T15:46:20.586Z,15.27
2023-02-19T15:49:02.968Z,18.07
2023-02-19T15:51:43.693Z,16.13
2023-02-19T15:54:32.770Z,16.43
2023-02-19T15:57:07.217Z,12.60
2023-02-19T15:59:43.229Z,15.07
2023-02-19T16:02:14.949Z,13.97
2023-02-19T16:04:46.414Z,15.17
2023-02-19T16:07:29.425Z,15.93
2023-02-19T16:10:19.153Z,15.70
2023-02-19T16:12:59.599Z,18.33
2023-02-19T16:15:29.427Z,16.93
2023-02-19T16:17:58.629Z,15.10
2023-02-19T16:20:34.987Z,13.93
2023-02-19T16:23:06.052Z,17.47
2023-02-19T16:25:38.572Z,16.27
2023-02-19T16:28:25.095Z,14.60
2023-02-19T16:31:03.569Z,16.93
2023-02-19T16:33:35.018Z,15.33
2023-02-19T16:36:33.498Z,18.33
2023-02-19T16:39:01.246Z,16.40
2023-02-19T16:41:29.917Z,13.60
2023-02-19T16:43:57.505Z,15.60
2023-02-19T16:46:25.450Z,17.90
2023-02-19T16:48:54.489Z,17.10
2023-02-19T16:51:28.550Z,17.17
2023-02-19T16:53:56.021Z,16.47
2023-02-19T16:56:26.194Z,14.30
2023-02-19T16:58:54.019Z,16.43
2023-02-19T17:01:21.656Z,17.77
2023-02-19T17:03:49.560Z,19.63
2023-02-19T17:06:17.306Z,18.63
2023-02-19T17:08:50.795Z,17.83
2023-02-19T17:11:18.927Z,18.67
2023-02-19T17:13:48.594Z,18.90
2023-02-19T17:16:22.411Z,19.90
2023-02-19T17:18:51.033Z,19.20
2023-02-19T17:21:23.175Z,18.80
2023-02-19T17:23:51.352Z,20.25
2023-02-19T17:26:22.137Z,19.57
2023-02-19T17:28:50.548Z,20.03
2023-02-19T17:31:20.817Z,19.40
2023-02-19T17:33:48.493Z,16.63
2023-02-19T17:36:23.528Z,18.37
2023-02-19T17:38:51.696Z,17.00
2023-02-19T17:41:19.536Z,20.53
2023-02-19T17:43:47.785Z,17.93
2023-02-19T17:46:20.366Z,21.07
2023-02-19T17:48:47.969Z,22.77
2023-02-19T17:51:15.774Z,19.67
2023-02-19T17:53:44.101Z,19.10
2023-02-19T17:56:17.756Z,19.70
2023-02-19T17:58:45.313Z,22.70
2023-02-19T18:01:13.486Z,20.20
2023-02-19T18:03:41.691Z,21.77
2023-02-19T18:06:09.332Z,20.03
2023-02-19T18:08:37.048Z,25.20
2023-02-19T18:11:06.774Z,20.60
2023-02-19T18:13:34.463Z,22.73
2023-02-19T18:16:02.074Z,20.43
2023-02-19T18:18:30.562Z,22.87
2023-02-19T18:20:58.090Z,20.73
2023-02-19T18:23:25.696Z,22.87
2023-02-19T18:25:55.842Z,21.80
2023-02-19T18:28:23.376Z,21.10
2023-02-19T18:30:51.151Z,19.00
2023-02-19T18:33:18.934Z,20.57
2023-02-19T18:35:50.617Z,20.50
2023-02-19T18:38:20.980Z,24.43
2023-02-19T18:40:48.615Z,21.33
2023-02-19T18:43:16.107Z,22.60
2023-02-19T18:45:45.638Z,21.57
2023-02-19T18:48:13.557Z,21.00
2023-02-19T18:50:41.098Z,22.33
2023-02-19T18:53:08.671Z,22.90
2023-02-19T18:55:36.211Z,24.00
2023-02-19T18:58:03.817Z,24.70
2023-02-19T19:00:31.565Z,21.63
2023-02-19T19:03:00.197Z,24.10
2023-02-19T19:05:27.976Z,26.53
2023-02-19T19:07:59.501Z,22.30
2023-02-19T19:10:27.650Z,22.23
2023-02-19T19:12:55.251Z,22.50
2023-02-19T19:15:24.076Z,22.83
2023-02-19T19:17:51.837Z,22.87
2023-02-19T19:20:21.567Z,21.27
2023-02-19T19:22:51.854Z,22.47
2023-02-19T19:25:21.080Z,25.13
2023-02-19T19:27:55.943Z,21.65
2023-02-19T19:30:24.049Z,25.92
2023-02-19T19:32:52.688Z,22.03
2023-02-19T19:35:22.339Z,26.13
2023-02-19T19:37:52.761Z,19.88
2023-02-19T19:40:20.516Z,22.87
2023-02-19T19:42:50.650Z,25.20
2023-02-19T19:45:18.296Z,24.17
2023-02-19T19:47:46.057Z,25.00
2023-02-19T19:50:14.690Z,25.23
2023-02-19T19:52:42.276Z,22.17
2023-02-19T19:55:10.106Z,21.70
2023-02-19T19:57:40.347Z,21.20
2023-02-19T20:00:12.400Z,24.43
2023-02-19T20:02:40.538Z,22.38
2023-02-19T20:05:08.558Z,21.97
2023-02-19T20:07:36.425Z,25.27
2023-02-19T20:10:05.645Z,26.07
2023-02-19T20:12:33.750Z,21.53
2023-02-19T20:15:01.355Z,26.63
2023-02-19T20:17:30.786Z,24.33
2023-02-19T20:20:01.496Z,23.07
2023-02-19T20:22:29.078Z,23.27
2023-02-19T20:24:56.761Z,25.93
2023-02-19T20:27:24.767Z,23.77
2023-02-19T20:29:52.309Z,27.43
2023-02-19T20:32:19.960Z,26.27
2023-02-19T20:34:48.132Z,26.40
2023-02-19T20:37:16.336Z,25.83
2023-02-19T20:39:44.162Z,25.07
2023-02-19T20:42:16.799Z,29.03
2023-02-19T20:44:44.566Z,29.08
2023-02-19T20:47:12.231Z,27.60
2023-02-19T20:49:43.916Z,26.20
2023-02-19T20:52:12.614Z,29.17
2023-02-19T20:54:40.401Z,33.73
2023-02-19T20:57:09.282Z,33.17
2023-02-19T20:59:38.851Z,27.63
2023-02-19T21:02:09.337Z,27.53
2023-02-19T21:04:40.498Z,27.47
2023-02-19T21:07:08.116Z,27.10
2023-02-19T21:09:35.766Z,30.20
2023-02-19T21:12:03.409Z,26.77
2023-02-19T21:14:31.600Z,29.37
2023-02-19T21:16:59.187Z,31.87
2023-02-19T21:19:26.679Z,34.60
2023-02-19T21:21:54.413Z,29.77
2023-02-19T21:24:21.985Z,33.93
2023-02-19T21:26:49.625Z,40.80
2023-02-19T21:29:19.636Z,33.83
2023-02-19T21:31:49.629Z,33.53
2023-02-19T21:34:20.265Z,36.70
2023-02-19T21:36:48.094Z,36.13
2023-02-19T21:39:19.412Z,37.07
2023-02-19T21:41:47.515Z,37.07
2023-02-19T21:44:15.608Z,35.93
2023-02-19T21:46:43.312Z,38.40
2023-02-19T21:49:11.996Z,37.93
2023-02-19T21:51:41.929Z,38.23
2023-02-19T21:54:23.279Z,41.77
2023-02-19T21:56:54.399Z,38.27
2023-02-19T21:59:22.805Z,36.10
2023-02-19T22:01:51.048Z,37.03
2023-02-19T22:04:24.724Z,35.10
2023-02-19T22:06:55.731Z,38.73
2023-02-19T22:09:23.308Z,37.53
2023-02-19T22:11:51.167Z,36.63
2023-02-19T22:14:18.923Z,34.53
2023-02-19T22:16:46.670Z,33.43
2023-02-19T22:19:14.757Z,33.37
2023-02-19T22:21:44.613Z,32.37
2023-02-19T22:24:20.981Z,32.30
2023-02-19T22:26:50.837Z,36.17
2023-02-19T22:29:20.224Z,34.70
2023-02-19T22:31:48.238Z,32.47
2023-02-19T22:34:16.406Z,31.57
2023-02-19T22:36:46.907Z,29.00
2023-02-19T22:39:26.418Z,34.13
2023-02-19T22:41:56.581Z,33.72
2023-02-19T22:44:24.320Z,28.93
2023-02-19T22:46:54.353Z,35.53
2023-02-19T22:49:24.329Z,35.70
2023-02-19T22:52:03.953Z,33.77
2023-02-19T22:54:31.717Z,30.10
2023-02-19T22:56:59.221Z,32.37
2023-02-19T22:59:26.730Z,30.47
2023-02-19T23:01:54.739Z,34.83
2023-02-19T23:04:27.600Z,34.47
2023-02-19T23:06:55.355Z,34.67
2023-02-19T23:09:29.062Z,30.97
2023-02-19T23:12:05.513Z,34.87
2023-02-19T23:14:33.609Z,33.93
2023-02-19T23:17:02.078Z,35.83
2023-02-19T23:19:29.738Z,36.27
2023-02-19T23:21:57.629Z,35.57
2023-02-19T23:24:25.738Z,39.50
2023-02-19T23:26:54.099Z,36.63
2023-02-19T23:29:27.220Z,38.43
2023-02-19T23:31:55.526Z,40.37
2023-02-19T23:34:24.615Z,33.43
2023-02-19T23:36:52.717Z,35.70
2023-02-19T23:39:21.952Z,34.33
2023-02-19T23:41:54.204Z,38.50
2023-02-19T23:44:23.194Z,37.47
2023-02-19T23:46:52.111Z,35.10
2023-02-19T23:49:20.305Z,36.57
2023-02-19T23:51:48.239Z,34.27
2023-02-19T23:54:16.152Z,36.57
2023-02-19T23:56:43.882Z,35.87
2023-02-19T23:59:11.623Z,37.57
